This is the latest recevied weather packets stored in our database for station/object OK1HOL-13. If no packets are shown the sender has not sent any weather packets the latest 10 day(s).
| Time | Temp. | Humidity | Pressure | Rain* | Wind** | Luminosity | Snow |
|---|---|---|---|---|---|---|---|
| 1777995361 | 26.67° C | 28% | 1004 hPa | - | - | 166 W/m² | - |
| 1777994761 | 26.67° C | 29% | 1004.2 hPa | - | - | 189 W/m² | - |
| 1777994161 | 25.56° C | 30% | 1004.2 hPa | - | - | 100 W/m² | - |
| 1777993561 | 25.56° C | 32% | 1004.3 hPa | - | - | 79 W/m² | - |
| 1777992961 | 25° C | 32% | 1004.5 hPa | - | - | 40 W/m² | - |
| 1777992361 | 25.56° C | 31% | 1004.6 hPa | - | - | 26 W/m² | - |
| 1777991761 | 25.56° C | 31% | 1004.7 hPa | - | - | 37 W/m² | - |
| 1777991161 | 26.11° C | 29% | 1004.7 hPa | - | - | 68 W/m² | - |
| 1777990561 | 25.56° C | 30% | 1004.8 hPa | - | - | 78 W/m² | - |
| 1777989961 | 26.67° C | 27% | 1004.9 hPa | - | - | 95 W/m² | - |
| 1777989361 | 26.11° C | 29% | 1005 hPa | - | - | 206 W/m² | - |
| 1777988761 | 27.22° C | 28% | 1005 hPa | - | - | 336 W/m² | - |
| 1777988161 | 26.67° C | 30% | 1005.1 hPa | - | - | 356 W/m² | - |
| 1777987561 | 27.22° C | 28% | 1005.1 hPa | - | - | 147 W/m² | - |
| 1777986964 | 27.22° C | 28% | 1005.2 hPa | - | - | 0 W/m² | - |
| 1777986360 | 27.22° C | 28% | 1005.3 hPa | - | - | 431 W/m² | - |
| 1777985760 | 27.78° C | 27% | 1005.5 hPa | - | - | 431 W/m² | - |
| 1777985160 | 26.67° C | 28% | 1005.6 hPa | - | - | 431 W/m² | - |
| 1777984560 | 27.22° C | 29% | 1005.6 hPa | - | - | 431 W/m² | - |
| 1777983960 | 26.67° C | 28% | 1005.8 hPa | - | - | 431 W/m² | - |
| 1777983360 | 26.67° C | 28% | 1005.9 hPa | - | - | 431 W/m² | - |
| 1777982760 | 26.11° C | 29% | 1006.1 hPa | - | - | 431 W/m² | - |
| 1777982160 | 26.67° C | 28% | 1006.2 hPa | - | - | 431 W/m² | - |
| 1777981560 | 26.11° C | 29% | 1006.3 hPa | - | - | 431 W/m² | - |
| 1777980960 | 26.11° C | 30% | 1006.4 hPa | - | - | 431 W/m² | - |
* Rain since midnight (hover to see other rain measurements)
** Current wind speed in m/s (hover to see current wind gust speed)